Thor Monadic — 9V8978 — position and weather

sailwx.info

Track history (hours):
 
Tides and Currents Weather Stations Pressure Air Temp Water Temp Dewpoint Dewpoint Depression Visibility Wind Speed Wind Dir Waves Ship Positions

Thor Monadic

Last reported at 2018-Feb-22 08:47 UTC. Time now 2018-Feb-23 06:54 UTC.
Position N 35°57' W 005°35'.

Length 190 m; draft 8.7 m.

Type: Cargo ship. MMSI: 564411000.

Date/timePositionNaut miles runAvg speedWind from/ knotsBaromVisibWave heightAir tempDewpointWater temp
2018-Feb-22 08:47N 35°57' W 005°35'3 9.6
2018-Feb-22 08:28N 35°59' W 005°32'510.2
2018-Feb-22 08:01N 36°01' W 005°26'510.0
2018-Feb-22 07:31N 36°05' W 005°23'3 6.1
2018-Feb-22 07:00N 36°08' W 005°22'0 0.3
2018-Feb-22 06:30N 36°08' W 005°22'0 0.0
2018-Feb-22 06:00N 36°08' W 005°22'0 0.0
2018-Feb-22 05:28N 36°08' W 005°22'0 0.1
2018-Feb-22 05:00N 36°08' W 005°22'0 0.0
2018-Feb-22 04:30N 36°08' W 005°22'0 0.0
2018-Feb-22 04:00N 36°08' W 005°22'0 0.2
2018-Feb-22 03:30N 36°08' W 005°22'0 0.1
2018-Feb-22 03:00N 36°08' W 005°22'0 0.1
2018-Feb-22 02:30N 36°08' W 005°22'0 0.0
2018-Feb-22 02:00N 36°08' W 005°22'0 0.2
2018-Feb-22 01:30N 36°08' W 005°22'0 0.3
2018-Feb-22 01:00N 36°08' W 005°22'0 0.2
2018-Feb-22 00:30N 36°08' W 005°22'0 0.0
2018-Feb-22 00:00N 36°08' W 005°22'0 0.0
2018-Feb-21 23:30N 36°08' W 005°22'0 0.0
2018-Feb-21 22:57N 36°08' W 005°22'0 0.1
2018-Feb-21 22:30N 36°08' W 005°22'0 0.1
2018-Feb-21 22:00N 36°08' W 005°22'0 0.0
2018-Feb-21 21:30N 36°08' W 005°22'0 0.1
2018-Feb-21 21:00N 36°08' W 005°22'0 0.0
2018-Feb-21 20:30N 36°08' W 005°22'0 0.0
2018-Feb-21 20:00N 36°08' W 005°22'0 0.1
2018-Feb-21 19:30N 36°08' W 005°22'0 0.9
2018-Feb-21 19:00N 36°07' W 005°22'3 5.2
2018-Feb-21 18:30N 36°05' W 005°21'0 0.5
2018-Feb-21 18:00N 36°05' W 005°21'1 1.4
2018-Feb-21 17:30N 36°05' W 005°20'2 5.0
2018-Feb-21 17:00N 36°05' W 005°17'22111.0
2018-Feb-20 20:52N 36°40' W 000°46'411.7
2018-Feb-20 20:29N 36°42' W 000°41'611.7
2018-Feb-20 20:00N 36°44' W 000°35'611.8
2018-Feb-20 19:30N 36°46' W 000°28'611.7
2018-Feb-20 18:58N 36°48' W 000°21'611.6
2018-Feb-20 18:29N 36°50' W 000°14'611.7
2018-Feb-20 18:00N 36°53' W 000°08'612.0
2018-Feb-20 17:30N 36°55' W 000°01'612.4
2018-Feb-20 17:00N 36°57' E 000°07'712.2
2018-Feb-20 16:27N 36°60' E 000°14'612.1
2018-Feb-20 15:59N 37°02' E 000°21'  
2018-Feb-18 04:31N 36°36' E 014°01'112.0
2018-Feb-18 04:27N 36°35' E 014°02'512.0
2018-Feb-18 03:59N 36°34' E 014°09'611.9
2018-Feb-18 03:29N 36°32' E 014°16'611.9
2018-Feb-18 02:59N 36°30' E 014°23'611.7
2018-Feb-18 02:28N 36°28' E 014°30'511.7
2018-Feb-18 02:00N 36°27' E 014°37'  
2018-Feb-15 08:20N 35°46' E 030°19'  
Track history (hours):
 
Tides and Currents Weather Stations Pressure Air Temp Water Temp Dewpoint Dewpoint Depression Visibility Wind Speed Wind Dir Waves Ship Positions

Thor Monadic

Last reported at 2018-Feb-22 08:47 UTC. Time now 2018-Feb-23 06:54 UTC.
Position N 35°57' W 005°35'.

Length 190 m; draft 8.7 m.

Type: Cargo ship. MMSI: 564411000.

Date/timePositionNaut miles runAvg speedWind from/ knotsBaromVisibWave heightAir tempDewpointWater temp
2018-Feb-22 08:47N 35°57' W 005°35'3 9.6
2018-Feb-22 08:28N 35°59' W 005°32'510.2
2018-Feb-22 08:01N 36°01' W 005°26'510.0
2018-Feb-22 07:31N 36°05' W 005°23'3 6.1
2018-Feb-22 07:00N 36°08' W 005°22'0 0.3
2018-Feb-22 06:30N 36°08' W 005°22'0 0.0
2018-Feb-22 06:00N 36°08' W 005°22'0 0.0
2018-Feb-22 05:28N 36°08' W 005°22'0 0.1
2018-Feb-22 05:00N 36°08' W 005°22'0 0.0
2018-Feb-22 04:30N 36°08' W 005°22'0 0.0
2018-Feb-22 04:00N 36°08' W 005°22'0 0.2
2018-Feb-22 03:30N 36°08' W 005°22'0 0.1
2018-Feb-22 03:00N 36°08' W 005°22'0 0.1
2018-Feb-22 02:30N 36°08' W 005°22'0 0.0
2018-Feb-22 02:00N 36°08' W 005°22'0 0.2
2018-Feb-22 01:30N 36°08' W 005°22'0 0.3
2018-Feb-22 01:00N 36°08' W 005°22'0 0.2
2018-Feb-22 00:30N 36°08' W 005°22'0 0.0
2018-Feb-22 00:00N 36°08' W 005°22'0 0.0
2018-Feb-21 23:30N 36°08' W 005°22'0 0.0
2018-Feb-21 22:57N 36°08' W 005°22'0 0.1
2018-Feb-21 22:30N 36°08' W 005°22'0 0.1
2018-Feb-21 22:00N 36°08' W 005°22'0 0.0
2018-Feb-21 21:30N 36°08' W 005°22'0 0.1
2018-Feb-21 21:00N 36°08' W 005°22'0 0.0
2018-Feb-21 20:30N 36°08' W 005°22'0 0.0
2018-Feb-21 20:00N 36°08' W 005°22'0 0.1
2018-Feb-21 19:30N 36°08' W 005°22'0 0.9
2018-Feb-21 19:00N 36°07' W 005°22'3 5.2
2018-Feb-21 18:30N 36°05' W 005°21'0 0.5
2018-Feb-21 18:00N 36°05' W 005°21'1 1.4
2018-Feb-21 17:30N 36°05' W 005°20'2 5.0
2018-Feb-21 17:00N 36°05' W 005°17'22111.0
2018-Feb-20 20:52N 36°40' W 000°46'411.7
2018-Feb-20 20:29N 36°42' W 000°41'611.7
2018-Feb-20 20:00N 36°44' W 000°35'611.8
2018-Feb-20 19:30N 36°46' W 000°28'611.7
2018-Feb-20 18:58N 36°48' W 000°21'611.6
2018-Feb-20 18:29N 36°50' W 000°14'611.7
2018-Feb-20 18:00N 36°53' W 000°08'612.0
2018-Feb-20 17:30N 36°55' W 000°01'612.4
2018-Feb-20 17:00N 36°57' E 000°07'712.2
2018-Feb-20 16:27N 36°60' E 000°14'612.1
2018-Feb-20 15:59N 37°02' E 000°21'  
2018-Feb-18 04:31N 36°36' E 014°01'112.0
2018-Feb-18 04:27N 36°35' E 014°02'512.0
2018-Feb-18 03:59N 36°34' E 014°09'611.9
2018-Feb-18 03:29N 36°32' E 014°16'611.9
2018-Feb-18 02:59N 36°30' E 014°23'611.7
2018-Feb-18 02:28N 36°28' E 014°30'511.7
2018-Feb-18 02:00N 36°27' E 014°37'  
2018-Feb-15 08:20N 35°46' E 030°19'  

Dump ship's entire track history